Time,TemperatureF,DewpointF,PressureIn,WindDirection,WindDirectionDegrees,WindSpeedMPH,WindSpeedGustMPH,Humidity,HourlyPrecipIn,Conditions,Clouds,dailyrainin,SolarRadiationWatts/m^2,SoftwareType,DateUTC
2013-01-23 00:22:00,64.0,64.0,-100.00,WNW,299,1.0,4.0,99,0.00,,,0.00,0.000000,,2013-01-23 10:22:00,
2013-01-23 00:32:00,64.0,64.0,-100.00,WNW,299,1.0,4.0,99,0.00,,,0.00,0.000000,,2013-01-23 10:32:00,
2013-01-23 00:42:00,64.0,64.0,-100.00,WNW,299,1.0,4.0,99,0.00,,,0.00,0.000000,,2013-01-23 10:42:00,
2013-01-23 00:52:00,64.0,64.0,-100.00,WNW,299,1.0,4.0,99,0.00,,,0.00,0.000000,,2013-01-23 10:52:00,
2013-01-23 01:22:00,65.0,64.0,-100.00,WNW,298,2.0,6.0,97,0.00,,,0.00,0.000000,,2013-01-23 11:22:00,
2013-01-23 01:33:00,65.0,64.0,-100.00,WNW,298,2.0,6.0,97,0.00,,,0.00,0.000000,,2013-01-23 11:33:00,
2013-01-23 01:42:00,65.0,64.0,-100.00,WNW,298,2.0,6.0,97,0.00,,,0.00,0.000000,,2013-01-23 11:42:00,
2013-01-23 01:52:00,65.0,64.0,-100.00,WNW,298,2.0,6.0,97,0.00,,,0.00,0.000000,,2013-01-23 11:52:00,
2013-01-23 02:22:00,66.0,65.0,-100.00,East,81,4.0,8.0,96,0.00,,,0.00,0.000000,,2013-01-23 12:22:00,
2013-01-23 02:33:00,66.0,65.0,-100.00,East,81,4.0,8.0,96,0.00,,,0.00,0.000000,,2013-01-23 12:33:00,
2013-01-23 02:42:00,66.0,65.0,-100.00,East,81,4.0,8.0,96,0.00,,,0.00,0.000000,,2013-01-23 12:42:00,
2013-01-23 02:52:00,66.0,65.0,-100.00,East,81,4.0,8.0,96,0.00,,,0.00,0.000000,,2013-01-23 12:52:00,
2013-01-23 03:23:00,65.0,62.0,-100.00,NE,48,2.0,8.0,91,0.00,,,0.00,0.000000,,2013-01-23 13:23:00,
2013-01-23 03:33:00,65.0,62.0,-100.00,NE,48,2.0,8.0,91,0.00,,,0.00,0.000000,,2013-01-23 13:33:00,
2013-01-23 03:42:00,65.0,62.0,-100.00,NE,48,2.0,8.0,91,0.00,,,0.00,0.000000,,2013-01-23 13:42:00,
2013-01-23 03:52:00,65.0,62.0,-100.00,NE,48,2.0,8.0,91,0.00,,,0.00,0.000000,,2013-01-23 13:52:00,
2013-01-23 04:23:00,65.0,65.0,-100.00,WNW,297,2.0,6.0,100,0.00,,,0.00,0.000000,,2013-01-23 14:23:00,
2013-01-23 04:33:00,65.0,65.0,-100.00,WNW,297,2.0,6.0,100,0.00,,,0.00,0.000000,,2013-01-23 14:33:00,
2013-01-23 04:42:00,65.0,65.0,-100.00,WNW,297,2.0,6.0,100,0.00,,,0.00,0.000000,,2013-01-23 14:42:00,
2013-01-23 04:52:00,65.0,65.0,-100.00,WNW,297,2.0,6.0,100,0.00,,,0.00,0.000000,,2013-01-23 14:52:00,
2013-01-23 05:22:00,65.0,64.0,-100.00,NNW,342,3.0,7.0,95,0.00,,,0.00,0.000000,,2013-01-23 15:22:00,
2013-01-23 05:33:00,65.0,64.0,-100.00,NNW,342,3.0,7.0,95,0.00,,,0.00,0.000000,,2013-01-23 15:33:00,
2013-01-23 05:43:00,65.0,64.0,-100.00,NNW,342,3.0,7.0,95,0.00,,,0.00,0.000000,,2013-01-23 15:43:00,
2013-01-23 05:52:00,65.0,64.0,-100.00,NNW,342,3.0,7.0,95,0.00,,,0.00,0.000000,,2013-01-23 15:52:00,
2013-01-23 06:22:00,63.0,61.0,-100.00,SSE,157,1.0,6.0,92,0.00,,,-99.99,0.000000,,2013-01-23 16:22:00,
2013-01-23 06:32:00,63.0,61.0,-100.00,SSE,157,1.0,6.0,92,0.00,,,-99.99,0.000000,,2013-01-23 16:32:00,
2013-01-23 06:42:00,63.0,61.0,-100.00,SSE,157,1.0,6.0,92,0.00,,,-99.99,0.000000,,2013-01-23 16:42:00,
2013-01-23 06:52:00,63.0,61.0,-100.00,SSE,157,1.0,6.0,92,0.00,,,-99.99,0.000000,,2013-01-23 16:52:00,
2013-01-23 07:22:00,63.0,63.0,-100.00,SW,223,2.0,5.0,99,0.00,,,0.00,0.000000,,2013-01-23 17:22:00,
2013-01-23 07:33:00,63.0,63.0,-100.00,SW,223,2.0,5.0,99,0.00,,,0.00,0.000000,,2013-01-23 17:33:00,
2013-01-23 07:42:00,63.0,63.0,-100.00,SW,223,2.0,5.0,99,0.00,,,0.00,0.000000,,2013-01-23 17:42:00,
2013-01-23 07:52:00,63.0,63.0,-100.00,SW,223,2.0,5.0,99,0.00,,,0.00,0.000000,,2013-01-23 17:52:00,
2013-01-23 08:23:00,65.0,62.0,-100.00,ENE,57,4.0,13.0,91,0.00,,,0.00,9.000000,,2013-01-23 18:23:00,
2013-01-23 08:33:00,65.0,62.0,-100.00,ENE,57,4.0,13.0,91,0.00,,,0.00,9.000000,,2013-01-23 18:33:00,
2013-01-23 08:43:00,65.0,62.0,-100.00,ENE,57,4.0,13.0,91,0.00,,,0.00,9.000000,,2013-01-23 18:43:00,
2013-01-23 08:52:00,65.0,62.0,-100.00,ENE,57,4.0,13.0,91,0.00,,,0.00,9.000000,,2013-01-23 18:52:00,
2013-01-23 09:22:00,66.0,66.0,-100.00,NW,319,3.0,8.0,100,0.00,,,0.00,68.000000,,2013-01-23 19:22:00,
2013-01-23 09:33:00,66.0,66.0,-100.00,NW,319,3.0,8.0,100,0.00,,,0.00,68.000000,,2013-01-23 19:33:00,
2013-01-23 09:43:00,66.0,66.0,-100.00,NW,319,3.0,8.0,100,0.00,,,0.00,68.000000,,2013-01-23 19:43:00,
2013-01-23 09:52:00,66.0,66.0,-100.00,NW,319,3.0,8.0,100,0.00,,,0.00,68.000000,,2013-01-23 19:52:00,
2013-01-23 10:23:00,67.0,67.0,-100.00,East,97,3.0,8.0,99,0.00,,,0.00,140.000000,,2013-01-23 20:23:00,
2013-01-23 10:33:00,67.0,67.0,-100.00,East,97,3.0,8.0,99,0.00,,,0.00,140.000000,,2013-01-23 20:33:00,
2013-01-23 10:42:00,67.0,67.0,-100.00,East,97,3.0,8.0,99,0.00,,,0.00,140.000000,,2013-01-23 20:42:00,
2013-01-23 10:53:00,67.0,67.0,-100.00,East,97,3.0,8.0,99,0.00,,,0.00,140.000000,,2013-01-23 20:53:00,
2013-01-23 11:22:00,69.0,68.0,-100.00,SW,234,3.0,15.0,98,0.00,,,-99.99,307.000000,,2013-01-23 21:22:00,
2013-01-23 11:33:00,69.0,68.0,-100.00,SW,234,3.0,15.0,98,0.00,,,-99.99,307.000000,,2013-01-23 21:33:00,
2013-01-23 11:42:00,69.0,68.0,-100.00,SW,234,3.0,15.0,98,0.00,,,-99.99,307.000000,,2013-01-23 21:42:00,
2013-01-23 11:52:00,69.0,68.0,-100.00,SW,234,3.0,15.0,98,0.00,,,-99.99,307.000000,,2013-01-23 21:52:00,
2013-01-23 12:22:00,71.0,68.0,-100.00,ENE,78,7.0,16.0,91,0.00,,,0.00,420.000000,,2013-01-23 22:22:00,
2013-01-23 12:33:00,71.0,68.0,-100.00,ENE,78,7.0,16.0,91,0.00,,,0.00,420.000000,,2013-01-23 22:33:00,
2013-01-23 12:42:00,71.0,68.0,-100.00,ENE,78,7.0,16.0,91,0.00,,,0.00,420.000000,,2013-01-23 22:42:00,
2013-01-23 12:52:00,71.0,68.0,-100.00,ENE,78,7.0,16.0,91,0.00,,,0.00,420.000000,,2013-01-23 22:52:00,
2013-01-23 13:22:00,71.0,69.0,-100.00,ESE,119,7.0,18.0,92,0.00,,,0.00,447.000000,,2013-01-23 23:22:00,
2013-01-23 13:33:00,71.0,69.0,-100.00,ESE,119,7.0,18.0,92,0.00,,,0.00,447.000000,,2013-01-23 23:33:00,
2013-01-23 13:42:00,71.0,69.0,-100.00,ESE,119,7.0,18.0,92,0.00,,,0.00,447.000000,,2013-01-23 23:42:00,
2013-01-23 13:52:00,71.0,69.0,-100.00,ESE,119,7.0,18.0,92,0.00,,,0.00,447.000000,,2013-01-23 23:52:00,
2013-01-23 14:22:00,72.0,68.0,-100.00,East,83,5.0,14.0,86,0.00,,,0.00,627.000000,,2013-01-24 00:22:00,
2013-01-23 14:32:00,72.0,68.0,-100.00,East,83,5.0,14.0,86,0.00,,,0.00,627.000000,,2013-01-24 00:32:00,
2013-01-23 14:42:00,72.0,68.0,-100.00,East,83,5.0,14.0,86,0.00,,,0.00,627.000000,,2013-01-24 00:42:00,
2013-01-23 14:52:00,72.0,68.0,-100.00,East,83,5.0,14.0,86,0.00,,,0.00,627.000000,,2013-01-24 00:52:00,
2013-01-23 15:22:00,71.0,68.0,-100.00,ESE,113,5.0,12.0,89,0.00,,,0.00,429.000000,,2013-01-24 01:22:00,
2013-01-23 15:33:00,71.0,68.0,-100.00,ESE,113,5.0,12.0,89,0.00,,,0.00,429.000000,,2013-01-24 01:33:00,
2013-01-23 15:42:00,71.0,68.0,-100.00,ESE,113,5.0,12.0,89,0.00,,,0.00,429.000000,,2013-01-24 01:42:00,
2013-01-23 15:52:00,71.0,68.0,-100.00,ESE,113,5.0,12.0,89,0.00,,,0.00,429.000000,,2013-01-24 01:52:00,
2013-01-23 16:22:00,73.0,68.0,-100.00,ENE,61,5.0,31.0,85,0.00,,,0.00,654.000000,,2013-01-24 02:22:00,
2013-01-23 16:33:00,73.0,68.0,-100.00,ENE,61,5.0,31.0,85,0.00,,,0.00,654.000000,,2013-01-24 02:33:00,
2013-01-23 16:42:00,73.0,68.0,-100.00,ENE,61,5.0,31.0,85,0.00,,,0.00,654.000000,,2013-01-24 02:42:00,
2013-01-23 16:52:00,73.0,68.0,-100.00,ENE,61,5.0,31.0,85,0.00,,,0.00,654.000000,,2013-01-24 02:52:00,
2013-01-23 17:22:00,69.0,66.0,-100.00,ENE,65,8.0,15.0,91,0.00,,,0.00,72.000000,,2013-01-24 03:22:00,
2013-01-23 17:32:00,69.0,66.0,-100.00,ENE,65,8.0,15.0,91,0.00,,,0.00,72.000000,,2013-01-24 03:32:00,
2013-01-23 17:42:00,69.0,66.0,-100.00,ENE,65,8.0,15.0,91,0.00,,,0.00,72.000000,,2013-01-24 03:42:00,
2013-01-23 17:52:00,69.0,66.0,-100.00,ENE,65,8.0,15.0,91,0.00,,,0.00,72.000000,,2013-01-24 03:52:00,
2013-01-23 18:22:00,68.0,67.0,-100.00,ENE,59,6.0,11.0,95,0.00,,,0.00,63.000000,,2013-01-24 04:22:00,
2013-01-23 18:32:00,68.0,67.0,-100.00,ENE,59,6.0,11.0,95,0.00,,,0.00,63.000000,,2013-01-24 04:32:00,
2013-01-23 18:42:00,68.0,67.0,-100.00,ENE,59,6.0,11.0,95,0.00,,,0.00,63.000000,,2013-01-24 04:42:00,
2013-01-23 18:52:00,68.0,67.0,-100.00,ENE,59,6.0,11.0,95,0.00,,,0.00,63.000000,,2013-01-24 04:52:00,
2013-01-23 19:22:00,68.0,68.0,-100.00,SE,135,3.0,9.0,100,0.00,,,0.00,2.000000,,2013-01-24 05:22:00,
2013-01-23 19:32:00,68.0,68.0,-100.00,SE,135,3.0,9.0,100,0.00,,,0.00,2.000000,,2013-01-24 05:32:00,
2013-01-23 19:42:00,68.0,68.0,-100.00,SE,135,3.0,9.0,100,0.00,,,0.00,2.000000,,2013-01-24 05:42:00,
2013-01-23 19:52:00,68.0,68.0,-100.00,SE,135,3.0,9.0,100,0.00,,,0.00,2.000000,,2013-01-24 05:52:00,
2013-01-23 20:22:00,66.0,66.0,-100.00,SW,234,4.0,7.0,100,0.04,,,-99.99,0.000000,,2013-01-24 06:22:00,
2013-01-23 20:32:00,66.0,66.0,-100.00,SW,234,4.0,7.0,100,0.04,,,-99.99,0.000000,,2013-01-24 06:32:00,
2013-01-23 20:42:00,66.0,66.0,-100.00,SW,234,4.0,7.0,100,0.04,,,-99.99,0.000000,,2013-01-24 06:42:00,
2013-01-23 20:52:00,66.0,66.0,-100.00,SW,234,4.0,7.0,100,0.04,,,-99.99,0.000000,,2013-01-24 06:52:00,
2013-01-23 21:22:00,64.0,64.0,-100.00,East,81,1.0,5.0,100,0.01,,,0.05,0.000000,,2013-01-24 07:22:00,
2013-01-23 21:33:00,64.0,64.0,-100.00,East,81,1.0,5.0,100,0.01,,,0.05,0.000000,,2013-01-24 07:33:00,
2013-01-23 21:42:00,64.0,64.0,-100.00,East,81,1.0,5.0,100,0.01,,,0.05,0.000000,,2013-01-24 07:42:00,
2013-01-23 21:52:00,64.0,64.0,-100.00,East,81,1.0,5.0,100,0.01,,,0.05,0.000000,,2013-01-24 07:52:00,
2013-01-23 22:22:00,64.0,64.0,-100.00,East,85,2.0,6.0,100,0.01,,,0.06,0.000000,,2013-01-24 08:22:00,
2013-01-23 22:32:00,64.0,64.0,-100.00,East,85,2.0,6.0,100,0.01,,,0.06,0.000000,,2013-01-24 08:32:00,
2013-01-23 22:42:00,64.0,64.0,-100.00,East,85,2.0,6.0,100,0.01,,,0.06,0.000000,,2013-01-24 08:42:00,
2013-01-23 22:52:00,64.0,64.0,-100.00,East,85,2.0,6.0,100,0.01,,,0.06,0.000000,,2013-01-24 08:52:00,
2013-01-23 23:22:00,65.0,65.0,-100.00,SW,218,3.0,7.0,100,0.00,,,0.06,0.000000,,2013-01-24 09:22:00,
2013-01-23 23:33:00,65.0,65.0,-100.00,SW,218,3.0,7.0,100,0.00,,,0.06,0.000000,,2013-01-24 09:33:00,
2013-01-23 23:42:00,65.0,65.0,-100.00,SW,218,3.0,7.0,100,0.00,,,0.06,0.000000,,2013-01-24 09:42:00,
2013-01-23 23:52:00,65.0,65.0,-100.00,SW,218,3.0,7.0,100,0.00,,,0.06,0.000000,,2013-01-24 09:52:00,